sensor_id;sensor_type;location;lat;lon;timestamp;P1;durP1;ratioP1;P2;durP2;ratioP2
735;SDS011;352;48.626;9.238;2023-02-26T00:02:15;4.40;;;2.63;;
735;SDS011;352;48.626;9.238;2023-02-26T00:04:42;4.53;;;2.60;;
735;SDS011;352;48.626;9.238;2023-02-26T00:07:09;2.40;;;2.20;;
735;SDS011;352;48.626;9.238;2023-02-26T00:09:36;3.05;;;2.85;;
735;SDS011;352;48.626;9.238;2023-02-26T00:12:02;5.80;;;3.20;;
735;SDS011;352;48.626;9.238;2023-02-26T00:14:30;3.60;;;3.05;;
735;SDS011;352;48.626;9.238;2023-02-26T00:17:06;3.65;;;2.75;;
735;SDS011;352;48.626;9.238;2023-02-26T00:19:46;2.80;;;2.60;;
735;SDS011;352;48.626;9.238;2023-02-26T00:22:13;2.83;;;2.63;;
735;SDS011;352;48.626;9.238;2023-02-26T00:24:41;3.75;;;3.20;;
735;SDS011;352;48.626;9.238;2023-02-26T00:27:08;3.70;;;3.40;;
735;SDS011;352;48.626;9.238;2023-02-26T00:29:36;3.13;;;2.92;;
735;SDS011;352;48.626;9.238;2023-02-26T00:32:04;3.47;;;3.03;;
735;SDS011;352;48.626;9.238;2023-02-26T00:34:33;5.00;;;2.88;;
735;SDS011;352;48.626;9.238;2023-02-26T00:37:03;4.05;;;2.92;;
735;SDS011;352;48.626;9.238;2023-02-26T00:39:39;3.65;;;3.35;;
735;SDS011;352;48.626;9.238;2023-02-26T00:42:12;3.25;;;2.95;;
735;SDS011;352;48.626;9.238;2023-02-26T00:44:40;3.40;;;3.10;;
735;SDS011;352;48.626;9.238;2023-02-26T00:47:11;3.90;;;3.10;;
735;SDS011;352;48.626;9.238;2023-02-26T00:49:46;3.88;;;3.20;;
735;SDS011;352;48.626;9.238;2023-02-26T00:52:23;3.10;;;2.90;;
735;SDS011;352;48.626;9.238;2023-02-26T00:54:57;3.20;;;2.80;;
735;SDS011;352;48.626;9.238;2023-02-26T00:57:24;4.22;;;2.90;;
735;SDS011;352;48.626;9.238;2023-02-26T00:59:51;3.08;;;2.78;;
735;SDS011;352;48.626;9.238;2023-02-26T01:02:19;4.45;;;3.10;;
735;SDS011;352;48.626;9.238;2023-02-26T01:04:46;6.03;;;3.25;;
735;SDS011;352;48.626;9.238;2023-02-26T01:07:13;4.47;;;3.20;;
735;SDS011;352;48.626;9.238;2023-02-26T01:09:41;3.55;;;3.00;;
735;SDS011;352;48.626;9.238;2023-02-26T01:12:09;3.75;;;3.17;;
735;SDS011;352;48.626;9.238;2023-02-26T01:14:38;3.20;;;2.92;;
735;SDS011;352;48.626;9.238;2023-02-26T01:17:07;7.07;;;3.25;;
735;SDS011;352;48.626;9.238;2023-02-26T01:19:43;3.20;;;2.88;;
735;SDS011;352;48.626;9.238;2023-02-26T01:22:14;3.30;;;3.00;;
735;SDS011;352;48.626;9.238;2023-02-26T01:24:44;5.35;;;3.30;;
735;SDS011;352;48.626;9.238;2023-02-26T01:27:14;3.70;;;3.30;;
735;SDS011;352;48.626;9.238;2023-02-26T01:29:41;3.92;;;3.50;;
735;SDS011;352;48.626;9.238;2023-02-26T01:32:10;4.15;;;3.10;;
735;SDS011;352;48.626;9.238;2023-02-26T01:34:43;4.18;;;3.30;;
735;SDS011;352;48.626;9.238;2023-02-26T01:37:18;3.53;;;3.17;;
735;SDS011;352;48.626;9.238;2023-02-26T01:39:54;5.78;;;3.72;;
735;SDS011;352;48.626;9.238;2023-02-26T01:42:32;4.05;;;3.05;;
735;SDS011;352;48.626;9.238;2023-02-26T01:45:03;4.80;;;3.50;;
735;SDS011;352;48.626;9.238;2023-02-26T01:47:39;5.45;;;3.00;;
735;SDS011;352;48.626;9.238;2023-02-26T01:55:41;4.47;;;3.33;;
735;SDS011;352;48.626;9.238;2023-02-26T01:58:09;4.35;;;3.50;;
735;SDS011;352;48.626;9.238;2023-02-26T02:00:37;5.65;;;3.80;;
735;SDS011;352;48.626;9.238;2023-02-26T02:03:04;3.60;;;3.30;;
735;SDS011;352;48.626;9.238;2023-02-26T02:05:33;3.60;;;3.30;;
735;SDS011;352;48.626;9.238;2023-02-26T02:08:06;3.60;;;3.30;;
735;SDS011;352;48.626;9.238;2023-02-26T02:10:32;4.65;;;3.60;;
735;SDS011;352;48.626;9.238;2023-02-26T02:13:01;3.88;;;3.40;;
735;SDS011;352;48.626;9.238;2023-02-26T02:15:32;5.28;;;3.47;;
735;SDS011;352;48.626;9.238;2023-02-26T02:18:05;3.53;;;3.22;;
735;SDS011;352;48.626;9.238;2023-02-26T02:20:54;4.65;;;3.65;;
735;SDS011;352;48.626;9.238;2023-02-26T02:23:31;7.57;;;4.00;;
735;SDS011;352;48.626;9.238;2023-02-26T02:26:11;3.33;;;3.05;;
735;SDS011;352;48.626;9.238;2023-02-26T02:29:08;3.22;;;3.00;;
735;SDS011;352;48.626;9.238;2023-02-26T02:31:57;3.67;;;3.22;;
735;SDS011;352;48.626;9.238;2023-02-26T02:34:28;4.30;;;2.70;;
735;SDS011;352;48.626;9.238;2023-02-26T02:37:00;5.97;;;3.88;;
735;SDS011;352;48.626;9.238;2023-02-26T02:39:32;5.07;;;3.50;;
735;SDS011;352;48.626;9.238;2023-02-26T02:42:05;4.40;;;3.60;;
735;SDS011;352;48.626;9.238;2023-02-26T02:44:42;4.88;;;3.05;;
735;SDS011;352;48.626;9.238;2023-02-26T02:47:13;4.90;;;3.47;;
735;SDS011;352;48.626;9.238;2023-02-26T02:49:44;5.60;;;3.33;;
735;SDS011;352;48.626;9.238;2023-02-26T02:52:16;4.28;;;3.88;;
735;SDS011;352;48.626;9.238;2023-02-26T02:54:48;4.05;;;3.28;;
735;SDS011;352;48.626;9.238;2023-02-26T02:57:18;4.05;;;3.65;;
735;SDS011;352;48.626;9.238;2023-02-26T02:59:47;4.00;;;3.38;;
735;SDS011;352;48.626;9.238;2023-02-26T03:02:21;8.18;;;3.55;;
735;SDS011;352;48.626;9.238;2023-02-26T03:04:57;4.43;;;3.50;;
735;SDS011;352;48.626;9.238;2023-02-26T03:07:24;4.20;;;3.20;;
735;SDS011;352;48.626;9.238;2023-02-26T03:09:51;3.47;;;3.03;;
735;SDS011;352;48.626;9.238;2023-02-26T03:12:19;5.18;;;2.92;;
735;SDS011;352;48.626;9.238;2023-02-26T03:14:45;4.20;;;3.33;;
735;SDS011;352;48.626;9.238;2023-02-26T03:17:16;5.70;;;3.45;;
735;SDS011;352;48.626;9.238;2023-02-26T03:19:53;4.22;;;3.45;;
735;SDS011;352;48.626;9.238;2023-02-26T03:22:31;4.75;;;2.95;;
735;SDS011;352;48.626;9.238;2023-02-26T03:25:04;3.95;;;3.20;;
735;SDS011;352;48.626;9.238;2023-02-26T03:27:34;3.63;;;3.30;;
735;SDS011;352;48.626;9.238;2023-02-26T03:30:05;6.03;;;3.40;;
735;SDS011;352;48.626;9.238;2023-02-26T03:32:40;4.22;;;3.70;;
735;SDS011;352;48.626;9.238;2023-02-26T03:35:28;4.50;;;3.20;;
735;SDS011;352;48.626;9.238;2023-02-26T03:38:02;4.32;;;3.88;;
735;SDS011;352;48.626;9.238;2023-02-26T03:40:33;7.18;;;2.97;;
735;SDS011;352;48.626;9.238;2023-02-26T03:43:03;7.32;;;3.55;;
735;SDS011;352;48.626;9.238;2023-02-26T03:45:34;3.65;;;3.28;;
735;SDS011;352;48.626;9.238;2023-02-26T03:48:05;4.88;;;3.35;;
735;SDS011;352;48.626;9.238;2023-02-26T03:50:36;3.90;;;3.50;;
735;SDS011;352;48.626;9.238;2023-02-26T03:53:06;3.97;;;3.30;;
735;SDS011;352;48.626;9.238;2023-02-26T03:55:38;5.47;;;3.53;;
735;SDS011;352;48.626;9.238;2023-02-26T03:58:09;5.10;;;3.30;;
735;SDS011;352;48.626;9.238;2023-02-26T04:00:37;4.30;;;3.78;;
735;SDS011;352;48.626;9.238;2023-02-26T04:03:08;5.07;;;3.10;;
735;SDS011;352;48.626;9.238;2023-02-26T04:05:39;5.75;;;3.60;;
735;SDS011;352;48.626;9.238;2023-02-26T04:08:11;4.43;;;3.10;;
735;SDS011;352;48.626;9.238;2023-02-26T04:10:39;3.92;;;3.50;;
735;SDS011;352;48.626;9.238;2023-02-26T04:13:08;5.35;;;3.20;;
735;SDS011;352;48.626;9.238;2023-02-26T04:15:35;8.60;;;3.30;;
735;SDS011;352;48.626;9.238;2023-02-26T04:18:03;3.22;;;2.90;;
735;SDS011;352;48.626;9.238;2023-02-26T04:20:31;3.85;;;3.22;;
735;SDS011;352;48.626;9.238;2023-02-26T04:22:58;5.07;;;2.75;;
735;SDS011;352;48.626;9.238;2023-02-26T04:25:25;5.75;;;3.22;;
735;SDS011;352;48.626;9.238;2023-02-26T04:27:51;11.10;;;3.75;;
735;SDS011;352;48.626;9.238;2023-02-26T04:30:18;6.10;;;3.50;;
735;SDS011;352;48.626;9.238;2023-02-26T04:32:45;3.53;;;3.22;;
735;SDS011;352;48.626;9.238;2023-02-26T04:35:12;4.53;;;4.13;;
735;SDS011;352;48.626;9.238;2023-02-26T04:37:40;4.80;;;3.83;;
735;SDS011;352;48.626;9.238;2023-02-26T04:40:07;3.90;;;3.50;;
735;SDS011;352;48.626;9.238;2023-02-26T04:42:34;6.60;;;3.80;;
735;SDS011;352;48.626;9.238;2023-02-26T04:45:02;5.35;;;3.97;;
735;SDS011;352;48.626;9.238;2023-02-26T04:47:29;5.72;;;3.83;;
735;SDS011;352;48.626;9.238;2023-02-26T04:49:56;4.45;;;4.05;;
735;SDS011;352;48.626;9.238;2023-02-26T04:52:22;4.45;;;3.80;;
735;SDS011;352;48.626;9.238;2023-02-26T04:54:51;4.03;;;3.63;;
735;SDS011;352;48.626;9.238;2023-02-26T04:57:17;3.30;;;3.00;;
735;SDS011;352;48.626;9.238;2023-02-26T04:59:44;3.80;;;3.13;;
735;SDS011;352;48.626;9.238;2023-02-26T05:02:11;4.45;;;3.30;;
735;SDS011;352;48.626;9.238;2023-02-26T05:04:38;4.45;;;3.70;;
735;SDS011;352;48.626;9.238;2023-02-26T05:07:05;5.00;;;3.35;;
735;SDS011;352;48.626;9.238;2023-02-26T05:09:31;5.70;;;3.33;;
735;SDS011;352;48.626;9.238;2023-02-26T05:11:59;5.35;;;3.75;;
735;SDS011;352;48.626;9.238;2023-02-26T05:14:26;4.68;;;3.92;;
735;SDS011;352;48.626;9.238;2023-02-26T05:16:53;4.80;;;3.92;;
735;SDS011;352;48.626;9.238;2023-02-26T05:19:20;5.13;;;3.50;;
735;SDS011;352;48.626;9.238;2023-02-26T05:21:46;4.10;;;3.28;;
735;SDS011;352;48.626;9.238;2023-02-26T05:24:14;5.03;;;3.53;;
735;SDS011;352;48.626;9.238;2023-02-26T05:26:41;4.70;;;3.80;;
735;SDS011;352;48.626;9.238;2023-02-26T05:29:09;5.93;;;3.50;;
735;SDS011;352;48.626;9.238;2023-02-26T05:31:36;4.40;;;4.00;;
735;SDS011;352;48.626;9.238;2023-02-26T05:34:03;7.10;;;4.20;;
735;SDS011;352;48.626;9.238;2023-02-26T05:36:30;3.67;;;3.38;;
735;SDS011;352;48.626;9.238;2023-02-26T05:38:57;4.13;;;3.60;;
735;SDS011;352;48.626;9.238;2023-02-26T05:41:24;5.05;;;3.75;;
735;SDS011;352;48.626;9.238;2023-02-26T05:43:50;4.85;;;4.25;;
735;SDS011;352;48.626;9.238;2023-02-26T05:46:18;7.97;;;4.25;;
735;SDS011;352;48.626;9.238;2023-02-26T05:48:45;5.60;;;4.03;;
735;SDS011;352;48.626;9.238;2023-02-26T05:51:12;4.03;;;3.63;;
735;SDS011;352;48.626;9.238;2023-02-26T05:53:39;5.78;;;4.20;;
735;SDS011;352;48.626;9.238;2023-02-26T05:56:06;4.50;;;4.10;;
735;SDS011;352;48.626;9.238;2023-02-26T05:58:33;5.43;;;3.80;;
735;SDS011;352;48.626;9.238;2023-02-26T06:00:59;3.60;;;3.17;;
735;SDS011;352;48.626;9.238;2023-02-26T06:03:27;5.85;;;3.50;;
735;SDS011;352;48.626;9.238;2023-02-26T06:05:54;5.60;;;3.33;;
735;SDS011;352;48.626;9.238;2023-02-26T06:08:21;4.03;;;3.58;;
735;SDS011;352;48.626;9.238;2023-02-26T06:10:48;4.70;;;3.97;;
735;SDS011;352;48.626;9.238;2023-02-26T06:13:16;4.38;;;3.45;;
735;SDS011;352;48.626;9.238;2023-02-26T06:15:43;4.20;;;3.28;;
735;SDS011;352;48.626;9.238;2023-02-26T06:18:10;6.88;;;3.83;;
735;SDS011;352;48.626;9.238;2023-02-26T06:20:38;4.45;;;4.00;;
735;SDS011;352;48.626;9.238;2023-02-26T06:23:04;5.47;;;3.78;;
735;SDS011;352;48.626;9.238;2023-02-26T06:25:31;5.10;;;3.50;;
735;SDS011;352;48.626;9.238;2023-02-26T06:27:58;6.55;;;4.10;;
735;SDS011;352;48.626;9.238;2023-02-26T06:30:25;5.57;;;4.10;;
735;SDS011;352;48.626;9.238;2023-02-26T06:32:51;4.03;;;3.70;;
735;SDS011;352;48.626;9.238;2023-02-26T06:35:18;5.28;;;3.85;;
735;SDS011;352;48.626;9.238;2023-02-26T06:37:46;3.97;;;3.50;;
735;SDS011;352;48.626;9.238;2023-02-26T06:40:13;4.47;;;4.00;;
735;SDS011;352;48.626;9.238;2023-02-26T06:42:40;6.85;;;3.80;;
735;SDS011;352;48.626;9.238;2023-02-26T06:45:07;4.47;;;3.95;;
735;SDS011;352;48.626;9.238;2023-02-26T06:47:34;3.85;;;3.50;;
735;SDS011;352;48.626;9.238;2023-02-26T06:50:01;4.78;;;3.67;;
735;SDS011;352;48.626;9.238;2023-02-26T06:52:28;3.75;;;3.45;;
735;SDS011;352;48.626;9.238;2023-02-26T06:54:56;5.95;;;3.90;;
735;SDS011;352;48.626;9.238;2023-02-26T06:57:23;5.05;;;3.97;;
735;SDS011;352;48.626;9.238;2023-02-26T06:59:50;4.38;;;3.70;;
735;SDS011;352;48.626;9.238;2023-02-26T07:02:17;6.90;;;4.00;;
735;SDS011;352;48.626;9.238;2023-02-26T07:04:45;8.77;;;3.85;;
735;SDS011;352;48.626;9.238;2023-02-26T07:07:12;3.40;;;3.10;;
735;SDS011;352;48.626;9.238;2023-02-26T07:09:39;3.97;;;3.63;;
735;SDS011;352;48.626;9.238;2023-02-26T07:12:07;5.45;;;3.60;;
735;SDS011;352;48.626;9.238;2023-02-26T07:14:34;5.88;;;3.75;;
735;SDS011;352;48.626;9.238;2023-02-26T07:17:00;4.07;;;3.70;;
735;SDS011;352;48.626;9.238;2023-02-26T07:19:27;4.38;;;4.00;;
735;SDS011;352;48.626;9.238;2023-02-26T07:21:54;4.80;;;4.15;;
735;SDS011;352;48.626;9.238;2023-02-26T07:24:21;4.18;;;3.40;;
735;SDS011;352;48.626;9.238;2023-02-26T07:26:48;7.75;;;3.58;;
735;SDS011;352;48.626;9.238;2023-02-26T07:29:16;3.97;;;3.35;;
735;SDS011;352;48.626;9.238;2023-02-26T07:31:43;9.07;;;3.72;;
735;SDS011;352;48.626;9.238;2023-02-26T07:34:10;5.65;;;3.40;;
735;SDS011;352;48.626;9.238;2023-02-26T07:36:36;3.13;;;2.83;;
735;SDS011;352;48.626;9.238;2023-02-26T07:39:03;3.40;;;3.05;;
735;SDS011;352;48.626;9.238;2023-02-26T07:41:30;4.03;;;3.25;;
735;SDS011;352;48.626;9.238;2023-02-26T07:43:56;4.40;;;2.60;;
735;SDS011;352;48.626;9.238;2023-02-26T07:46:24;6.95;;;3.80;;
735;SDS011;352;48.626;9.238;2023-02-26T07:48:51;5.57;;;3.10;;
735;SDS011;352;48.626;9.238;2023-02-26T07:51:18;4.97;;;2.80;;
735;SDS011;352;48.626;9.238;2023-02-26T07:53:45;8.38;;;3.60;;
735;SDS011;352;48.626;9.238;2023-02-26T07:56:12;5.20;;;3.55;;
735;SDS011;352;48.626;9.238;2023-02-26T07:58:38;3.70;;;2.75;;
735;SDS011;352;48.626;9.238;2023-02-26T08:01:05;7.47;;;3.05;;
735;SDS011;352;48.626;9.238;2023-02-26T08:03:33;4.43;;;2.80;;
735;SDS011;352;48.626;9.238;2023-02-26T08:06:00;3.30;;;2.80;;
735;SDS011;352;48.626;9.238;2023-02-26T08:08:27;5.13;;;3.00;;
735;SDS011;352;48.626;9.238;2023-02-26T08:10:54;4.93;;;3.67;;
735;SDS011;352;48.626;9.238;2023-02-26T08:13:21;4.35;;;3.13;;
735;SDS011;352;48.626;9.238;2023-02-26T08:15:47;3.22;;;2.95;;
735;SDS011;352;48.626;9.238;2023-02-26T08:18:14;2.78;;;2.58;;
735;SDS011;352;48.626;9.238;2023-02-26T08:20:42;8.05;;;2.97;;
735;SDS011;352;48.626;9.238;2023-02-26T08:23:09;2.97;;;2.78;;
735;SDS011;352;48.626;9.238;2023-02-26T08:25:36;2.65;;;2.25;;
735;SDS011;352;48.626;9.238;2023-02-26T08:28:03;5.15;;;2.80;;
735;SDS011;352;48.626;9.238;2023-02-26T08:30:30;4.53;;;2.70;;
735;SDS011;352;48.626;9.238;2023-02-26T08:32:57;3.50;;;2.60;;
735;SDS011;352;48.626;9.238;2023-02-26T08:35:24;3.70;;;2.90;;
735;SDS011;352;48.626;9.238;2023-02-26T08:37:52;3.95;;;2.97;;
735;SDS011;352;48.626;9.238;2023-02-26T08:40:19;3.25;;;2.47;;
735;SDS011;352;48.626;9.238;2023-02-26T08:42:45;3.45;;;2.55;;
735;SDS011;352;48.626;9.238;2023-02-26T08:45:12;2.95;;;2.65;;
735;SDS011;352;48.626;9.238;2023-02-26T08:47:39;3.33;;;2.58;;
735;SDS011;352;48.626;9.238;2023-02-26T08:50:08;4.28;;;3.00;;
735;SDS011;352;48.626;9.238;2023-02-26T08:52:35;4.38;;;3.38;;
735;SDS011;352;48.626;9.238;2023-02-26T08:55:06;6.47;;;5.88;;
735;SDS011;352;48.626;9.238;2023-02-26T08:57:33;3.38;;;3.08;;
735;SDS011;352;48.626;9.238;2023-02-26T08:59:59;5.07;;;3.08;;
735;SDS011;352;48.626;9.238;2023-02-26T09:02:28;4.18;;;2.60;;
735;SDS011;352;48.626;9.238;2023-02-26T09:04:56;3.50;;;2.42;;
735;SDS011;352;48.626;9.238;2023-02-26T09:07:22;4.40;;;3.00;;
735;SDS011;352;48.626;9.238;2023-02-26T09:09:49;3.83;;;2.50;;
735;SDS011;352;48.626;9.238;2023-02-26T09:12:17;2.60;;;2.30;;
735;SDS011;352;48.626;9.238;2023-02-26T09:14:44;3.55;;;2.88;;
735;SDS011;352;48.626;9.238;2023-02-26T09:17:10;5.53;;;3.42;;
735;SDS011;352;48.626;9.238;2023-02-26T09:19:37;4.57;;;3.17;;
735;SDS011;352;48.626;9.238;2023-02-26T09:22:04;3.30;;;2.45;;
735;SDS011;352;48.626;9.238;2023-02-26T09:24:31;5.13;;;3.20;;
735;SDS011;352;48.626;9.238;2023-02-26T09:26:57;2.83;;;2.60;;
735;SDS011;352;48.626;9.238;2023-02-26T09:29:26;3.53;;;2.33;;
735;SDS011;352;48.626;9.238;2023-02-26T09:31:52;8.95;;;2.83;;
735;SDS011;352;48.626;9.238;2023-02-26T09:34:19;4.53;;;2.70;;
735;SDS011;352;48.626;9.238;2023-02-26T09:36:46;3.90;;;2.85;;
735;SDS011;352;48.626;9.238;2023-02-26T09:39:12;6.57;;;3.40;;
735;SDS011;352;48.626;9.238;2023-02-26T09:41:40;6.88;;;3.10;;
735;SDS011;352;48.626;9.238;2023-02-26T09:44:14;4.80;;;2.83;;
735;SDS011;352;48.626;9.238;2023-02-26T09:46:47;3.00;;;2.72;;
735;SDS011;352;48.626;9.238;2023-02-26T09:49:20;2.88;;;2.67;;
735;SDS011;352;48.626;9.238;2023-02-26T09:51:54;3.88;;;2.75;;
735;SDS011;352;48.626;9.238;2023-02-26T09:54:24;4.05;;;2.83;;
735;SDS011;352;48.626;9.238;2023-02-26T09:56:54;3.75;;;2.72;;
735;SDS011;352;48.626;9.238;2023-02-26T09:59:23;2.95;;;2.25;;
735;SDS011;352;48.626;9.238;2023-02-26T10:01:54;5.60;;;3.28;;
735;SDS011;352;48.626;9.238;2023-02-26T10:04:26;5.88;;;3.35;;
735;SDS011;352;48.626;9.238;2023-02-26T10:07:07;3.30;;;2.80;;
735;SDS011;352;48.626;9.238;2023-02-26T10:09:50;4.38;;;3.00;;
735;SDS011;352;48.626;9.238;2023-02-26T10:12:26;3.20;;;2.85;;
735;SDS011;352;48.626;9.238;2023-02-26T10:14:56;4.88;;;3.13;;
735;SDS011;352;48.626;9.238;2023-02-26T10:17:27;5.03;;;3.33;;
735;SDS011;352;48.626;9.238;2023-02-26T10:20:00;3.03;;;2.78;;
735;SDS011;352;48.626;9.238;2023-02-26T10:22:32;4.47;;;2.92;;
735;SDS011;352;48.626;9.238;2023-02-26T10:25:04;2.90;;;2.60;;
735;SDS011;352;48.626;9.238;2023-02-26T10:27:39;2.80;;;2.60;;
735;SDS011;352;48.626;9.238;2023-02-26T10:30:16;3.75;;;2.78;;
735;SDS011;352;48.626;9.238;2023-02-26T10:32:54;3.10;;;2.63;;
735;SDS011;352;48.626;9.238;2023-02-26T10:35:28;3.45;;;2.65;;
735;SDS011;352;48.626;9.238;2023-02-26T10:37:59;2.35;;;2.00;;
735;SDS011;352;48.626;9.238;2023-02-26T10:40:31;4.15;;;2.78;;
735;SDS011;352;48.626;9.238;2023-02-26T10:43:03;3.17;;;2.00;;
735;SDS011;352;48.626;9.238;2023-02-26T10:45:39;2.22;;;2.00;;
735;SDS011;352;48.626;9.238;2023-02-26T10:48:21;2.33;;;1.92;;
735;SDS011;352;48.626;9.238;2023-02-26T10:50:55;3.85;;;2.45;;
735;SDS011;352;48.626;9.238;2023-02-26T10:53:24;2.90;;;2.30;;
735;SDS011;352;48.626;9.238;2023-02-26T10:55:54;5.03;;;2.38;;
735;SDS011;352;48.626;9.238;2023-02-26T10:58:27;2.65;;;2.40;;
735;SDS011;352;48.626;9.238;2023-02-26T11:00:54;2.22;;;2.03;;
735;SDS011;352;48.626;9.238;2023-02-26T11:03:26;4.28;;;2.17;;
735;SDS011;352;48.626;9.238;2023-02-26T11:05:56;2.38;;;2.17;;
735;SDS011;352;48.626;9.238;2023-02-26T11:08:24;3.00;;;2.05;;
735;SDS011;352;48.626;9.238;2023-02-26T11:10:53;3.33;;;2.70;;
735;SDS011;352;48.626;9.238;2023-02-26T11:13:23;2.83;;;2.40;;
735;SDS011;352;48.626;9.238;2023-02-26T11:15:51;2.95;;;2.30;;
735;SDS011;352;48.626;9.238;2023-02-26T11:18:20;2.45;;;2.20;;
735;SDS011;352;48.626;9.238;2023-02-26T11:20:52;2.42;;;2.33;;
735;SDS011;352;48.626;9.238;2023-02-26T11:23:21;2.63;;;2.42;;
735;SDS011;352;48.626;9.238;2023-02-26T11:25:53;2.60;;;2.20;;
735;SDS011;352;48.626;9.238;2023-02-26T11:28:29;2.40;;;1.95;;
735;SDS011;352;48.626;9.238;2023-02-26T11:30:59;2.17;;;1.48;;
735;SDS011;352;48.626;9.238;2023-02-26T11:33:32;3.55;;;2.72;;
735;SDS011;352;48.626;9.238;2023-02-26T11:36:02;3.15;;;2.85;;
735;SDS011;352;48.626;9.238;2023-02-26T11:38:34;2.20;;;2.00;;
735;SDS011;352;48.626;9.238;2023-02-26T11:41:01;3.72;;;2.45;;
735;SDS011;352;48.626;9.238;2023-02-26T11:43:32;2.72;;;2.53;;
735;SDS011;352;48.626;9.238;2023-02-26T11:46:02;2.83;;;2.63;;
735;SDS011;352;48.626;9.238;2023-02-26T11:48:34;2.30;;;2.10;;
735;SDS011;352;48.626;9.238;2023-02-26T11:51:05;2.10;;;1.90;;
735;SDS011;352;48.626;9.238;2023-02-26T11:53:34;2.92;;;2.30;;
735;SDS011;352;48.626;9.238;2023-02-26T11:56:08;2.97;;;2.00;;
735;SDS011;352;48.626;9.238;2023-02-26T11:58:36;3.40;;;2.10;;
735;SDS011;352;48.626;9.238;2023-02-26T12:01:06;2.28;;;2.08;;
735;SDS011;352;48.626;9.238;2023-02-26T12:03:37;1.70;;;1.60;;
735;SDS011;352;48.626;9.238;2023-02-26T12:06:05;2.47;;;1.90;;
735;SDS011;352;48.626;9.238;2023-02-26T12:08:33;1.98;;;1.88;;
735;SDS011;352;48.626;9.238;2023-02-26T12:11:09;2.45;;;1.90;;
735;SDS011;352;48.626;9.238;2023-02-26T12:13:44;6.30;;;2.83;;
735;SDS011;352;48.626;9.238;2023-02-26T12:16:22;2.25;;;1.95;;
735;SDS011;352;48.626;9.238;2023-02-26T12:18:57;1.65;;;1.55;;
735;SDS011;352;48.626;9.238;2023-02-26T12:21:38;2.00;;;1.73;;
735;SDS011;352;48.626;9.238;2023-02-26T12:24:31;1.48;;;1.38;;
735;SDS011;352;48.626;9.238;2023-02-26T12:27:13;3.13;;;2.33;;
735;SDS011;352;48.626;9.238;2023-02-26T12:29:49;3.10;;;1.88;;
735;SDS011;352;48.626;9.238;2023-02-26T12:32:30;2.55;;;2.17;;
735;SDS011;352;48.626;9.238;2023-02-26T12:35:14;1.80;;;1.70;;
735;SDS011;352;48.626;9.238;2023-02-26T12:37:56;2.25;;;1.80;;
735;SDS011;352;48.626;9.238;2023-02-26T12:40:42;1.70;;;1.60;;
735;SDS011;352;48.626;9.238;2023-02-26T12:43:23;2.20;;;2.00;;
735;SDS011;352;48.626;9.238;2023-02-26T12:46:01;2.13;;;2.03;;
735;SDS011;352;48.626;9.238;2023-02-26T12:48:42;1.90;;;1.80;;
735;SDS011;352;48.626;9.238;2023-02-26T12:51:24;2.40;;;2.30;;
735;SDS011;352;48.626;9.238;2023-02-26T12:54:11;2.80;;;1.90;;
735;SDS011;352;48.626;9.238;2023-02-26T12:56:58;2.15;;;2.05;;
735;SDS011;352;48.626;9.238;2023-02-26T12:59:39;1.55;;;1.45;;
735;SDS011;352;48.626;9.238;2023-02-26T13:02:27;1.90;;;1.80;;
735;SDS011;352;48.626;9.238;2023-02-26T13:05:26;2.17;;;1.95;;
735;SDS011;352;48.626;9.238;2023-02-26T13:08:07;1.80;;;1.60;;
735;SDS011;352;48.626;9.238;2023-02-26T13:10:43;1.60;;;1.50;;
735;SDS011;352;48.626;9.238;2023-02-26T13:13:24;2.10;;;2.00;;
735;SDS011;352;48.626;9.238;2023-02-26T13:16:03;1.70;;;1.60;;
735;SDS011;352;48.626;9.238;2023-02-26T13:18:41;1.60;;;1.50;;
735;SDS011;352;48.626;9.238;2023-02-26T13:21:15;1.92;;;1.70;;
735;SDS011;352;48.626;9.238;2023-02-26T13:23:49;1.70;;;1.60;;
735;SDS011;352;48.626;9.238;2023-02-26T13:26:18;1.70;;;1.60;;
735;SDS011;352;48.626;9.238;2023-02-26T13:28:47;2.33;;;2.10;;
735;SDS011;352;48.626;9.238;2023-02-26T13:31:19;1.90;;;1.80;;
735;SDS011;352;48.626;9.238;2023-02-26T13:33:48;1.60;;;1.50;;
735;SDS011;352;48.626;9.238;2023-02-26T13:36:16;1.77;;;1.60;;
735;SDS011;352;48.626;9.238;2023-02-26T13:38:52;5.60;;;1.60;;
735;SDS011;352;48.626;9.238;2023-02-26T13:41:37;2.95;;;1.70;;
735;SDS011;352;48.626;9.238;2023-02-26T13:44:14;1.88;;;1.77;;
735;SDS011;352;48.626;9.238;2023-02-26T13:46:51;1.95;;;1.85;;
735;SDS011;352;48.626;9.238;2023-02-26T13:49:41;2.10;;;1.90;;
735;SDS011;352;48.626;9.238;2023-02-26T13:52:23;1.90;;;1.80;;
735;SDS011;352;48.626;9.238;2023-02-26T13:54:52;1.80;;;1.70;;
735;SDS011;352;48.626;9.238;2023-02-26T13:57:33;1.70;;;1.60;;
735;SDS011;352;48.626;9.238;2023-02-26T14:00:14;2.25;;;2.05;;
735;SDS011;352;48.626;9.238;2023-02-26T14:02:52;1.38;;;1.30;;
735;SDS011;352;48.626;9.238;2023-02-26T14:05:27;1.50;;;1.40;;
735;SDS011;352;48.626;9.238;2023-02-26T14:08:27;1.90;;;1.45;;
735;SDS011;352;48.626;9.238;2023-02-26T14:14:12;1.10;;;1.10;;
735;SDS011;352;48.626;9.238;2023-02-26T14:20:05;1.65;;;1.45;;
735;SDS011;352;48.626;9.238;2023-02-26T14:22:45;7.53;;;1.50;;
735;SDS011;352;48.626;9.238;2023-02-26T14:25:15;1.40;;;1.30;;
735;SDS011;352;48.626;9.238;2023-02-26T14:27:48;1.45;;;1.30;;
735;SDS011;352;48.626;9.238;2023-02-26T14:30:17;1.10;;;1.00;;
735;SDS011;352;48.626;9.238;2023-02-26T14:32:52;1.33;;;1.23;;
735;SDS011;352;48.626;9.238;2023-02-26T14:35:20;1.40;;;1.30;;
735;SDS011;352;48.626;9.238;2023-02-26T14:37:54;1.20;;;1.10;;
735;SDS011;352;48.626;9.238;2023-02-26T14:40:24;2.50;;;1.80;;
735;SDS011;352;48.626;9.238;2023-02-26T14:42:56;1.05;;;1.00;;
735;SDS011;352;48.626;9.238;2023-02-26T14:45:27;1.60;;;1.38;;
735;SDS011;352;48.626;9.238;2023-02-26T14:47:56;1.75;;;1.55;;
735;SDS011;352;48.626;9.238;2023-02-26T14:50:24;1.60;;;1.50;;
735;SDS011;352;48.626;9.238;2023-02-26T14:56:04;1.27;;;1.20;;
735;SDS011;352;48.626;9.238;2023-02-26T14:58:40;1.60;;;1.50;;
735;SDS011;352;48.626;9.238;2023-02-26T15:01:19;1.58;;;1.48;;
735;SDS011;352;48.626;9.238;2023-02-26T15:04:09;1.70;;;1.20;;
735;SDS011;352;48.626;9.238;2023-02-26T15:06:49;1.55;;;1.45;;
735;SDS011;352;48.626;9.238;2023-02-26T15:09:29;1.40;;;1.30;;
735;SDS011;352;48.626;9.238;2023-02-26T15:12:07;1.00;;;1.00;;
735;SDS011;352;48.626;9.238;2023-02-26T15:14:55;1.48;;;1.38;;
735;SDS011;352;48.626;9.238;2023-02-26T15:17:38;1.55;;;1.40;;
735;SDS011;352;48.626;9.238;2023-02-26T15:20:21;1.20;;;1.10;;
735;SDS011;352;48.626;9.238;2023-02-26T15:23:02;1.30;;;1.20;;
735;SDS011;352;48.626;9.238;2023-02-26T15:25:43;1.70;;;1.60;;
735;SDS011;352;48.626;9.238;2023-02-26T15:28:19;1.70;;;1.60;;
735;SDS011;352;48.626;9.238;2023-02-26T15:30:51;1.45;;;1.35;;
735;SDS011;352;48.626;9.238;2023-02-26T15:33:19;1.52;;;1.40;;
735;SDS011;352;48.626;9.238;2023-02-26T15:35:47;1.40;;;1.33;;
735;SDS011;352;48.626;9.238;2023-02-26T15:38:14;4.05;;;1.70;;
735;SDS011;352;48.626;9.238;2023-02-26T15:40:41;1.30;;;1.20;;
735;SDS011;352;48.626;9.238;2023-02-26T15:43:08;1.52;;;1.50;;
735;SDS011;352;48.626;9.238;2023-02-26T15:45:40;1.55;;;1.20;;
735;SDS011;352;48.626;9.238;2023-02-26T15:48:13;1.55;;;1.45;;
735;SDS011;352;48.626;9.238;2023-02-26T15:50:43;1.10;;;1.00;;
735;SDS011;352;48.626;9.238;2023-02-26T15:53:15;1.55;;;1.45;;
735;SDS011;352;48.626;9.238;2023-02-26T15:55:45;1.50;;;1.40;;
735;SDS011;352;48.626;9.238;2023-02-26T15:58:18;1.17;;;1.10;;
735;SDS011;352;48.626;9.238;2023-02-26T16:00:51;2.75;;;1.77;;
735;SDS011;352;48.626;9.238;2023-02-26T16:03:27;1.67;;;1.30;;
735;SDS011;352;48.626;9.238;2023-02-26T16:05:56;1.45;;;1.35;;
735;SDS011;352;48.626;9.238;2023-02-26T16:08:23;1.40;;;1.30;;
735;SDS011;352;48.626;9.238;2023-02-26T16:10:51;1.02;;;1.00;;
735;SDS011;352;48.626;9.238;2023-02-26T16:13:22;1.40;;;1.30;;
735;SDS011;352;48.626;9.238;2023-02-26T16:15:53;1.10;;;1.05;;
735;SDS011;352;48.626;9.238;2023-02-26T16:18:23;1.40;;;1.30;;
735;SDS011;352;48.626;9.238;2023-02-26T16:20:53;2.60;;;1.45;;
735;SDS011;352;48.626;9.238;2023-02-26T16:23:23;1.40;;;1.30;;
735;SDS011;352;48.626;9.238;2023-02-26T16:25:55;1.80;;;1.48;;